createdAt,value
2017-07-25T00:02:19.733Z,77.70
2017-07-25T00:04:46.377Z,77.20
2017-07-25T00:07:12.287Z,77.10
2017-07-25T00:09:38.977Z,77.50
2017-07-25T00:12:04.898Z,77.50
2017-07-25T00:14:30.865Z,77.20
2017-07-25T00:16:56.805Z,77.80
2017-07-25T00:19:22.735Z,78.20
2017-07-25T00:21:48.652Z,77.70
2017-07-25T00:24:14.595Z,78.40
2017-07-25T00:26:41.258Z,79.00
2017-07-25T00:29:07.185Z,79.00
2017-07-25T00:31:33.124Z,79.10
2017-07-25T00:33:59.770Z,78.30
2017-07-25T00:36:25.701Z,78.30
2017-07-25T00:38:51.658Z,79.20
2017-07-25T00:41:17.589Z,78.60
2017-07-25T00:43:43.524Z,78.00
2017-07-25T00:46:09.484Z,79.70
2017-07-25T00:48:37.239Z,80.00
2017-07-25T00:51:03.905Z,79.30
2017-07-25T00:53:29.807Z,79.00
2017-07-25T00:55:56.540Z,80.20
2017-07-25T00:58:22.486Z,79.20
2017-07-25T01:00:48.421Z,79.10
2017-07-25T01:03:15.089Z,79.30
2017-07-25T01:05:41.020Z,79.20
2017-07-25T01:08:06.961Z,79.00
2017-07-25T01:10:32.895Z,80.40
2017-07-25T01:12:58.857Z,80.80
2017-07-25T01:15:24.820Z,80.20
2017-07-25T01:17:50.773Z,79.50
2017-07-25T01:20:16.718Z,80.00
2017-07-25T01:22:42.686Z,79.30
2017-07-25T01:25:08.630Z,79.50
2017-07-25T01:27:34.559Z,79.50
2017-07-25T01:30:00.489Z,79.10
2017-07-25T01:32:26.417Z,79.60
2017-07-25T01:34:52.369Z,79.60
2017-07-25T01:37:18.373Z,80.00
2017-07-25T01:39:44.316Z,80.10
2017-07-25T01:42:10.271Z,81.40
2017-07-25T01:44:36.205Z,80.90
2017-07-25T01:47:02.135Z,80.80
2017-07-25T01:49:28.106Z,80.40
2017-07-25T01:51:54.792Z,80.00
2017-07-25T01:54:20.734Z,80.00
2017-07-25T01:56:46.690Z,80.30
2017-07-25T01:59:13.371Z,81.20
2017-07-25T02:01:39.337Z,81.20
2017-07-25T02:04:05.295Z,80.50
2017-07-25T02:06:31.229Z,79.90
2017-07-25T02:08:57.178Z,80.30
2017-07-25T02:11:23.117Z,80.30
2017-07-25T02:13:49.069Z,79.80
2017-07-25T02:16:15.017Z,79.50
2017-07-25T02:18:41.734Z,81.50
2017-07-25T02:21:07.685Z,81.50
2017-07-25T02:23:33.633Z,81.90
2017-07-25T02:26:00.326Z,81.40
2017-07-25T02:28:26.336Z,81.30
2017-07-25T02:30:52.270Z,82.20
2017-07-25T02:33:18.225Z,82.40
2017-07-25T02:35:44.164Z,82.40
2017-07-25T02:38:10.116Z,82.60
2017-07-25T02:40:36.873Z,82.40
2017-07-25T02:43:02.860Z,82.20
2017-07-25T02:45:28.809Z,81.60
2017-07-25T02:47:54.745Z,82.50
2017-07-25T02:50:21.461Z,81.70
2017-07-25T02:52:47.442Z,81.60
2017-07-25T02:55:13.382Z,81.70
2017-07-25T02:57:39.299Z,82.20
2017-07-25T03:00:05.256Z,83.20
2017-07-25T03:02:31.185Z,83.60
2017-07-25T03:04:57.853Z,83.40
2017-07-25T03:07:23.777Z,83.30
2017-07-25T03:09:49.713Z,83.00
2017-07-25T03:12:15.641Z,83.00
2017-07-25T03:14:42.330Z,82.70
2017-07-25T03:17:08.242Z,82.20
2017-07-25T03:19:34.899Z,81.90
2017-07-25T03:22:00.826Z,81.70
2017-07-25T03:24:42.508Z,81.90
2017-07-25T03:27:08.465Z,81.90
2017-07-25T03:29:34.393Z,81.90
2017-07-25T03:32:00.335Z,81.70
2017-07-25T03:34:26.268Z,82.40
2017-07-25T03:36:52.217Z,83.00
2017-07-25T03:39:18.895Z,83.50
2017-07-25T03:41:44.829Z,83.40
2017-07-25T03:44:10.764Z,83.10
2017-07-25T03:46:36.707Z,83.90
2017-07-25T03:49:02.650Z,84.30
2017-07-25T03:51:28.669Z,84.60
2017-07-25T03:53:54.629Z,84.10
2017-07-25T03:56:20.564Z,84.20
2017-07-25T03:58:47.233Z,83.30
2017-07-25T04:01:13.161Z,83.30
2017-07-25T04:03:39.102Z,84.10
2017-07-25T04:06:05.038Z,83.90
2017-07-25T04:08:30.983Z,83.40
2017-07-25T04:10:56.941Z,83.30
2017-07-25T04:13:22.893Z,83.00
2017-07-25T04:15:48.812Z,83.40
2017-07-25T04:18:14.752Z,83.50
2017-07-25T04:20:40.688Z,83.70
2017-07-25T04:23:06.630Z,82.90
2017-07-25T04:25:32.601Z,82.40
2017-07-25T04:27:58.581Z,82.90
2017-07-25T04:30:24.537Z,81.90
2017-07-25T04:32:50.538Z,82.60
2017-07-25T04:35:16.521Z,83.30
2017-07-25T04:37:43.186Z,83.10
2017-07-25T04:40:09.135Z,83.10
2017-07-25T04:42:35.091Z,83.00
2017-07-25T04:45:01.042Z,82.60
2017-07-25T04:47:27.733Z,82.80
2017-07-25T04:49:53.678Z,82.70
2017-07-25T04:52:19.608Z,82.70
2017-07-25T04:54:45.525Z,83.20
2017-07-25T04:57:11.479Z,83.10
2017-07-25T04:59:37.413Z,82.80
2017-07-25T05:02:04.120Z,81.50
2017-07-25T05:04:30.097Z,81.50
2017-07-25T05:06:57.853Z,82.30
2017-07-25T05:09:24.514Z,83.00
2017-07-25T05:11:50.446Z,83.00
2017-07-25T05:14:17.100Z,82.80
2017-07-25T05:16:43.028Z,82.80
2017-07-25T05:19:08.945Z,83.40
2017-07-25T05:21:34.881Z,84.70
2017-07-25T05:24:00.809Z,84.90
2017-07-25T05:26:26.753Z,84.70
2017-07-25T05:28:52.697Z,85.60
2017-07-25T05:31:18.677Z,85.00
2017-07-25T05:33:45.361Z,86.00
2017-07-25T05:36:11.310Z,85.60
2017-07-25T05:38:37.225Z,84.40
2017-07-25T05:41:03.157Z,83.80
2017-07-25T05:43:29.109Z,83.80
2017-07-25T05:45:55.072Z,84.30
2017-07-25T05:48:20.996Z,84.60
2017-07-25T05:50:46.945Z,85.00
2017-07-25T05:53:12.895Z,84.80
2017-07-25T05:55:38.859Z,85.00
2017-07-25T05:58:04.893Z,84.60
2017-07-25T06:00:30.854Z,84.10
2017-07-25T06:02:56.841Z,83.70
2017-07-25T06:05:23.518Z,82.90
2017-07-25T06:07:49.469Z,82.90
2017-07-25T06:10:15.419Z,82.70
2017-07-25T06:12:41.389Z,83.50
2017-07-25T06:15:07.313Z,83.30
2017-07-25T06:17:33.286Z,83.70
2017-07-25T06:19:59.201Z,83.90
2017-07-25T06:22:25.132Z,83.70
2017-07-25T06:24:51.078Z,84.10
2017-07-25T06:27:17.009Z,83.80
2017-07-25T06:29:44.183Z,83.70
2017-07-25T06:32:10.139Z,84.20
2017-07-25T06:34:36.093Z,83.40
2017-07-25T06:37:02.077Z,84.00
2017-07-25T06:39:28.792Z,82.80
2017-07-25T06:41:54.741Z,82.80
2017-07-25T06:44:21.417Z,85.70
2017-07-25T06:46:47.331Z,85.60
2017-07-25T06:49:14.003Z,86.20
2017-07-25T06:51:39.950Z,86.10
2017-07-25T06:54:05.885Z,84.70
2017-07-25T06:56:31.812Z,87.20
2017-07-25T06:58:57.773Z,87.60
2017-07-25T07:01:23.720Z,86.90
2017-07-25T07:03:49.697Z,87.00
2017-07-25T07:06:15.627Z,86.20
2017-07-25T07:08:41.573Z,87.50
2017-07-25T07:11:07.536Z,87.40
2017-07-25T07:13:33.570Z,84.90
2017-07-25T07:15:59.599Z,86.70
2017-07-25T07:18:25.513Z,85.60
2017-07-25T07:20:51.454Z,85.60
2017-07-25T07:23:17.379Z,85.50
2017-07-25T07:25:43.325Z,85.50
2017-07-25T07:28:09.270Z,85.70
2017-07-25T07:30:36.257Z,85.20
2017-07-25T07:33:05.970Z,85.50
2017-07-25T07:35:31.929Z,85.40
2017-07-25T07:37:57.899Z,85.60
2017-07-25T07:40:23.834Z,85.80
2017-07-25T07:42:49.764Z,85.10
2017-07-25T07:45:15.818Z,82.40
2017-07-25T07:47:46.445Z,81.70
2017-07-25T07:50:12.405Z,81.50
2017-07-25T07:52:39.473Z,78.70
2017-07-25T07:55:05.417Z,79.00
2017-07-25T07:57:31.401Z,78.00
2017-07-25T08:02:55.281Z,78.60
2017-07-25T08:05:21.287Z,78.60
2017-07-25T08:07:47.329Z,78.10
2017-07-25T08:10:13.362Z,77.60
2017-07-25T08:12:40.044Z,77.80
2017-07-25T08:15:10.850Z,77.80
2017-07-25T08:17:36.777Z,78.20
2017-07-25T08:20:02.716Z,78.70
2017-07-25T08:22:45.685Z,79.90
2017-07-25T08:25:11.634Z,79.60
2017-07-25T08:27:38.363Z,81.30
2017-07-25T08:30:04.355Z,81.30
2017-07-25T08:32:30.294Z,83.30
2017-07-25T08:34:56.248Z,83.40
2017-07-25T08:37:22.206Z,84.00
2017-07-25T08:39:48.157Z,84.50
2017-07-25T08:42:32.201Z,84.70
2017-07-25T08:44:58.141Z,85.60
2017-07-25T08:47:24.082Z,86.30
2017-07-25T08:49:55.262Z,87.10
2017-07-25T08:52:21.965Z,87.40
2017-07-25T08:54:48.966Z,87.40
2017-07-25T08:57:16.736Z,88.60
2017-07-25T08:59:43.416Z,88.70
2017-07-25T09:02:12.781Z,88.70
2017-07-25T09:04:38.729Z,89.20
2017-07-25T09:07:04.677Z,90.10
2017-07-25T09:09:30.625Z,90.30
2017-07-25T09:11:56.564Z,90.10
2017-07-25T09:14:22.535Z,90.00
2017-07-25T09:16:48.525Z,89.90
2017-07-25T09:19:14.503Z,90.50
2017-07-25T09:21:40.507Z,90.10
2017-07-25T09:24:06.452Z,90.70
2017-07-25T09:26:32.393Z,90.90
2017-07-25T09:29:12.975Z,91.20
2017-07-25T09:31:38.925Z,91.50
2017-07-25T09:34:04.869Z,91.00
2017-07-25T09:36:36.937Z,91.50
2017-07-25T09:39:03.663Z,91.20
2017-07-25T09:41:29.616Z,91.20
2017-07-25T09:43:56.357Z,91.40
2017-07-25T09:46:22.457Z,91.30
2017-07-25T09:48:48.457Z,91.10
2017-07-25T09:51:14.449Z,91.20
2017-07-25T09:53:41.151Z,91.40
2017-07-25T09:56:07.167Z,91.40
2017-07-25T09:58:33.094Z,91.60
2017-07-25T10:00:59.064Z,91.40
2017-07-25T10:03:25.029Z,91.80
2017-07-25T10:05:50.989Z,91.00
2017-07-25T10:08:16.944Z,91.30
2017-07-25T10:10:43.068Z,91.80
2017-07-25T10:13:09.033Z,91.80
2017-07-25T10:15:34.969Z,91.50
2017-07-25T10:18:00.935Z,91.80
2017-07-25T10:20:26.971Z,92.00
2017-07-25T10:23:00.425Z,92.00
2017-07-25T10:25:33.885Z,91.80
2017-07-25T10:28:03.314Z,92.00
2017-07-25T10:30:29.288Z,92.30
2017-07-25T10:32:57.514Z,91.80
2017-07-25T10:35:39.354Z,91.90
2017-07-25T10:41:09.454Z,92.20
2017-07-25T10:43:38.996Z,92.40
2017-07-25T10:46:11.134Z,92.30
2017-07-25T10:48:40.514Z,92.10
2017-07-25T10:51:07.368Z,92.60
2017-07-25T10:53:38.105Z,92.20
2017-07-25T10:56:04.143Z,91.80
2017-07-25T10:58:30.161Z,91.90
2017-07-25T11:00:57.137Z,91.50
2017-07-25T11:03:27.362Z,91.80
2017-07-25T11:05:53.311Z,91.90
2017-07-25T11:08:20.351Z,91.60
2017-07-25T11:10:46.435Z,91.50
2017-07-25T11:13:13.193Z,91.30
2017-07-25T11:15:39.221Z,91.10
2017-07-25T11:18:10.211Z,91.50
2017-07-25T11:20:43.625Z,91.50
2017-07-25T11:23:15.896Z,91.00
2017-07-25T11:25:43.957Z,90.30
2017-07-25T11:28:10.032Z,90.80
2017-07-25T11:30:36.138Z,90.80
2017-07-25T11:33:02.144Z,90.90
2017-07-25T11:35:28.105Z,90.60
2017-07-25T11:37:55.153Z,90.80
2017-07-25T11:40:21.270Z,90.20
2017-07-25T11:42:48.330Z,91.10
2017-07-25T11:45:14.344Z,91.00
2017-07-25T11:47:44.825Z,90.80
2017-07-25T11:50:10.841Z,90.60
2017-07-25T11:52:42.406Z,90.70
2017-07-25T11:55:09.383Z,90.40
2017-07-25T11:57:40.120Z,91.00
2017-07-25T12:00:08.044Z,90.90
2017-07-25T12:02:37.745Z,90.80
2017-07-25T12:05:03.721Z,89.90
2017-07-25T12:07:31.686Z,87.80
2017-07-25T12:10:01.728Z,88.70
2017-07-25T12:12:27.742Z,88.70
2017-07-25T12:14:53.769Z,89.70
2017-07-25T12:17:24.604Z,88.30
2017-07-25T12:19:55.552Z,88.60
2017-07-25T12:22:22.310Z,88.50
2017-07-25T12:24:50.284Z,88.30
2017-07-25T12:27:17.488Z,87.30
2017-07-25T12:29:44.505Z,88.20
2017-07-25T12:32:10.515Z,88.70
2017-07-25T12:34:36.760Z,90.00
2017-07-25T12:37:02.705Z,89.30
2017-07-25T12:39:32.604Z,89.60
2017-07-25T12:42:00.213Z,89.20
2017-07-25T12:44:27.610Z,89.70
2017-07-25T12:47:04.342Z,89.00
2017-07-25T12:49:32.789Z,88.60
2017-07-25T12:52:00.803Z,88.50
2017-07-25T12:54:26.791Z,86.80
2017-07-25T12:56:52.854Z,86.50
2017-07-25T12:59:18.913Z,86.60
2017-07-25T13:01:57.468Z,87.50
2017-07-25T13:04:23.524Z,88.60
2017-07-25T13:06:57.217Z,87.50
2017-07-25T13:09:23.211Z,87.30
2017-07-25T13:11:56.433Z,87.60
2017-07-25T13:14:22.465Z,86.80
2017-07-25T13:16:48.524Z,87.30
2017-07-25T13:19:17.785Z,87.20
2017-07-25T13:21:44.242Z,86.50
2017-07-25T13:24:16.803Z,87.60
2017-07-25T13:26:48.721Z,87.10
2017-07-25T13:29:14.833Z,87.30
2017-07-25T13:31:40.818Z,87.90
2017-07-25T13:34:06.919Z,88.00
2017-07-25T13:36:32.882Z,88.20
2017-07-25T13:39:05.000Z,87.00
2017-07-25T13:41:32.021Z,86.60
2017-07-25T13:43:58.314Z,86.90
2017-07-25T13:46:24.341Z,85.50
2017-07-25T13:48:55.948Z,86.90
2017-07-25T13:51:29.657Z,86.90
2017-07-25T13:54:05.678Z,85.70
2017-07-25T13:56:33.644Z,84.90
2017-07-25T13:59:02.343Z,86.40
2017-07-25T14:01:28.562Z,86.20
2017-07-25T14:03:59.621Z,87.20
2017-07-25T14:06:25.562Z,86.40
2017-07-25T14:08:52.626Z,86.80
2017-07-25T14:11:19.670Z,87.10
2017-07-25T14:13:47.669Z,87.10
2017-07-25T14:16:13.922Z,86.20
2017-07-25T14:18:40.734Z,86.50
2017-07-25T14:21:10.530Z,85.20
2017-07-25T14:23:44.982Z,85.70
2017-07-25T14:26:12.030Z,85.70
2017-07-25T14:28:41.468Z,86.20
2017-07-25T14:31:08.462Z,85.80
2017-07-25T14:33:35.259Z,87.60
2017-07-25T14:36:01.214Z,87.50
2017-07-25T14:38:28.442Z,87.70
2017-07-25T14:40:58.641Z,89.10
2017-07-25T14:43:24.639Z,90.00
2017-07-25T14:45:52.455Z,90.40
2017-07-25T14:48:18.465Z,90.30
2017-07-25T14:50:45.033Z,90.20
2017-07-25T14:53:12.026Z,89.90
2017-07-25T14:55:41.118Z,89.50
2017-07-25T14:58:07.877Z,90.60
2017-07-25T15:00:34.545Z,90.70
2017-07-25T15:03:00.547Z,90.70
2017-07-25T15:05:30.485Z,91.40
2017-07-25T15:07:56.539Z,90.90
2017-07-25T15:10:22.538Z,91.30
2017-07-25T15:12:48.635Z,91.00
2017-07-25T15:15:15.621Z,90.40
2017-07-25T15:17:46.142Z,90.40
2017-07-25T15:20:20.514Z,90.60
2017-07-25T15:22:46.482Z,90.60
2017-07-25T15:25:18.067Z,90.80
2017-07-25T15:27:47.567Z,90.90
2017-07-25T15:30:17.813Z,90.80
2017-07-25T15:32:45.921Z,90.60
2017-07-25T15:35:15.389Z,90.90
2017-07-25T15:37:41.418Z,91.10
2017-07-25T15:40:07.462Z,91.60
2017-07-25T15:42:33.614Z,91.30
2017-07-25T15:45:01.671Z,91.50
2017-07-25T15:47:30.097Z,91.40
2017-07-25T15:49:57.344Z,91.20
2017-07-25T15:52:27.712Z,91.20
2017-07-25T15:54:55.795Z,91.60
2017-07-25T15:57:21.809Z,92.10
2017-07-25T15:59:47.766Z,92.10
2017-07-25T16:02:17.448Z,92.30
2017-07-25T16:04:51.688Z,92.30
2017-07-25T16:07:17.691Z,92.10
2017-07-25T16:09:44.554Z,92.70
2017-07-25T16:12:16.930Z,92.60
2017-07-25T16:14:47.253Z,92.50
2017-07-25T16:17:13.274Z,92.60
2017-07-25T16:19:40.049Z,92.60
2017-07-25T16:22:07.116Z,92.60
2017-07-25T16:24:35.300Z,92.50
2017-07-25T16:27:04.947Z,92.70
2017-07-25T16:29:31.028Z,92.80
2017-07-25T16:31:59.085Z,92.80
2017-07-25T16:34:30.918Z,92.90
2017-07-25T16:37:19.475Z,93.30
2017-07-25T16:39:51.889Z,92.90
2017-07-25T16:42:17.887Z,92.90
2017-07-25T16:44:43.893Z,93.10
2017-07-25T16:47:10.588Z,93.00
2017-07-25T16:49:44.401Z,93.00
2017-07-25T16:52:11.464Z,93.00
2017-07-25T16:54:39.533Z,92.90
2017-07-25T16:57:07.564Z,93.10
2017-07-25T16:59:37.490Z,93.40
2017-07-25T17:02:16.465Z,93.40
2017-07-25T17:04:45.896Z,93.10
2017-07-25T17:07:16.253Z,93.10
2017-07-25T17:09:56.461Z,93.10
2017-07-25T17:12:26.979Z,93.30
2017-07-25T17:15:03.326Z,93.50
2017-07-25T17:17:35.694Z,93.20
2017-07-25T17:20:09.898Z,93.00
2017-07-25T17:22:35.901Z,93.10
2017-07-25T17:25:20.589Z,93.20
2017-07-25T17:27:54.914Z,93.20
2017-07-25T17:30:25.422Z,92.50
2017-07-25T17:33:01.738Z,92.70
2017-07-25T17:35:39.070Z,92.40
2017-07-25T17:38:09.455Z,92.30
2017-07-25T17:40:35.538Z,92.60
2017-07-25T17:43:16.854Z,93.10
2017-07-25T17:45:53.508Z,92.80
2017-07-25T17:48:23.944Z,92.90
2017-07-25T17:51:03.164Z,92.50
2017-07-25T17:53:35.737Z,92.60
2017-07-25T17:56:09.132Z,92.60
2017-07-25T17:58:45.425Z,92.50
2017-07-25T18:01:12.474Z,92.70
2017-07-25T18:03:53.459Z,92.60
2017-07-25T18:06:22.907Z,92.40
2017-07-25T18:08:50.128Z,92.80
2017-07-25T18:11:23.578Z,92.80
2017-07-25T18:14:09.962Z,92.90
2017-07-25T18:16:38.015Z,92.90
2017-07-25T18:19:04.756Z,93.10
2017-07-25T18:21:30.777Z,93.10
2017-07-25T18:24:04.121Z,93.20
2017-07-25T18:26:32.250Z,93.40
2017-07-25T18:29:00.293Z,93.60
2017-07-25T18:31:30.166Z,93.50
2017-07-25T18:33:56.845Z,93.90
2017-07-25T18:36:22.858Z,93.80
2017-07-25T18:38:49.894Z,94.10
2017-07-25T18:41:18.179Z,94.40
2017-07-25T18:43:48.966Z,94.50
2017-07-25T18:46:14.954Z,94.50
2017-07-25T18:49:05.836Z,94.50
2017-07-25T18:51:45.408Z,94.20
2017-07-25T18:54:12.457Z,94.20
2017-07-25T18:56:49.209Z,94.20
2017-07-25T18:59:26.644Z,94.00
2017-07-25T19:02:04.193Z,94.10
2017-07-25T19:04:48.484Z,93.90
2017-07-25T19:07:14.467Z,94.30
2017-07-25T19:09:44.319Z,94.10
2017-07-25T19:12:10.289Z,94.30
2017-07-25T19:14:38.327Z,94.00
2017-07-25T19:17:10.300Z,93.60
2017-07-25T19:19:37.289Z,93.70
2017-07-25T19:22:04.237Z,94.10
2017-07-25T19:24:30.273Z,93.40
2017-07-25T19:27:00.370Z,93.50
2017-07-25T19:29:32.581Z,93.40
2017-07-25T19:31:58.602Z,93.30
2017-07-25T19:34:26.589Z,93.60
2017-07-25T19:36:52.608Z,93.50
2017-07-25T19:39:20.594Z,93.70
2017-07-25T19:41:50.178Z,93.60
2017-07-25T19:44:24.407Z,93.80
2017-07-25T19:46:56.680Z,93.60
2017-07-25T19:49:29.085Z,93.50
2017-07-25T19:51:55.126Z,93.70
2017-07-25T19:54:21.081Z,93.70
2017-07-25T19:56:59.139Z,93.90
2017-07-25T19:59:26.211Z,93.90
2017-07-25T20:02:10.897Z,93.90
2017-07-25T20:04:38.587Z,94.10
2017-07-25T20:07:12.663Z,94.20
2017-07-25T20:09:49.070Z,94.40
2017-07-25T20:12:17.273Z,94.50
2017-07-25T20:14:46.086Z,94.70
2017-07-25T20:17:12.082Z,94.70
2017-07-25T20:19:51.341Z,94.60
2017-07-25T20:22:17.316Z,94.90
2017-07-25T20:24:44.348Z,95.30
2017-07-25T20:27:10.317Z,95.60
2017-07-25T20:29:42.645Z,95.40
2017-07-25T20:32:08.763Z,95.30
2017-07-25T20:34:41.296Z,95.50
2017-07-25T20:37:14.547Z,95.30
2017-07-25T20:39:48.013Z,95.10
2017-07-25T20:42:13.965Z,95.00
2017-07-25T20:44:40.978Z,95.00
2017-07-25T20:47:07.162Z,95.10
2017-07-25T20:49:34.053Z,94.40
2017-07-25T20:52:00.097Z,94.40
2017-07-25T20:54:29.587Z,94.50
2017-07-25T20:56:55.602Z,94.70
2017-07-25T20:59:26.238Z,94.70
2017-07-25T21:01:52.321Z,94.70
2017-07-25T21:04:18.619Z,94.40
2017-07-25T21:06:45.657Z,94.30
2017-07-25T21:09:20.339Z,93.90
2017-07-25T21:11:58.837Z,93.80
2017-07-25T21:14:35.212Z,93.50
2017-07-25T21:17:03.332Z,93.70
2017-07-25T21:19:30.118Z,93.60
2017-07-25T21:22:01.399Z,93.60
2017-07-25T21:24:29.583Z,93.50
2017-07-25T21:27:02.994Z,93.70
2017-07-25T21:29:29.714Z,93.10
2017-07-25T21:31:55.851Z,93.10
2017-07-25T21:34:28.925Z,93.10
2017-07-25T21:37:03.132Z,93.00
2017-07-25T21:39:29.256Z,93.30
2017-07-25T21:41:55.378Z,93.50
2017-07-25T21:44:30.088Z,92.90
2017-07-25T21:47:02.416Z,93.20
2017-07-25T21:49:31.929Z,92.80
2017-07-25T21:51:58.058Z,92.60
2017-07-25T21:54:29.255Z,92.40
2017-07-25T21:56:58.738Z,92.20
2017-07-25T21:59:24.811Z,92.30
2017-07-25T22:02:03.089Z,92.60
2017-07-25T22:04:53.785Z,92.70
2017-07-25T22:07:19.792Z,92.20
2017-07-25T22:09:46.515Z,91.80
2017-07-25T22:12:12.469Z,91.80
2017-07-25T22:14:39.205Z,92.40
2017-07-25T22:17:05.203Z,92.20
2017-07-25T22:19:31.180Z,92.40
2017-07-25T22:21:57.898Z,92.40
2017-07-25T22:24:23.928Z,92.40
2017-07-25T22:26:49.946Z,92.40
2017-07-25T22:29:15.943Z,92.40
2017-07-25T22:31:41.908Z,92.50
2017-07-25T22:34:07.889Z,92.10
2017-07-25T22:36:33.908Z,92.50
2017-07-25T22:38:59.909Z,92.50
2017-07-25T22:41:25.861Z,92.30
2017-07-25T22:43:52.561Z,92.60
2017-07-25T22:46:18.530Z,92.60
2017-07-25T22:48:44.502Z,92.80
2017-07-25T22:51:10.493Z,92.40
2017-07-25T22:53:37.200Z,92.30
2017-07-25T22:56:03.226Z,92.30
2017-07-25T22:58:29.171Z,92.30
2017-07-25T23:00:55.142Z,92.00
2017-07-25T23:03:21.131Z,91.80
2017-07-25T23:05:47.122Z,91.60
2017-07-25T23:08:13.115Z,91.60
2017-07-25T23:10:39.090Z,91.40
2017-07-25T23:13:05.051Z,91.40
2017-07-25T23:15:31.030Z,91.90
2017-07-25T23:17:56.987Z,91.90
2017-07-25T23:20:22.993Z,91.70
2017-07-25T23:22:48.992Z,91.40
2017-07-25T23:25:14.995Z,91.10
2017-07-25T23:27:40.971Z,91.40
2017-07-25T23:30:07.008Z,91.50
2017-07-25T23:32:33.011Z,91.50
2017-07-25T23:34:59.078Z,91.40
2017-07-25T23:37:25.401Z,91.40
2017-07-25T23:39:51.731Z,91.40
2017-07-25T23:42:17.735Z,91.30
2017-07-25T23:44:43.681Z,91.00
2017-07-25T23:47:09.622Z,90.90
2017-07-25T23:49:35.597Z,90.70
2017-07-25T23:52:01.560Z,91.10
2017-07-25T23:54:27.517Z,90.60
2017-07-25T23:56:53.478Z,90.60
2017-07-25T23:59:20.203Z,90.80
